sensor_id;sensor_type;location;lat;lon;timestamp;temperature;humidity
14727;DHT22;7454;51.256;8.176;2022-07-26T00:02:00;19.70;60.50
14727;DHT22;7454;51.256;8.176;2022-07-26T00:04:26;19.70;60.60
14727;DHT22;7454;51.256;8.176;2022-07-26T00:06:52;19.70;60.60
14727;DHT22;7454;51.256;8.176;2022-07-26T00:09:18;19.70;60.60
14727;DHT22;7454;51.256;8.176;2022-07-26T00:11:44;19.70;60.60
14727;DHT22;7454;51.256;8.176;2022-07-26T00:14:10;19.60;60.60
14727;DHT22;7454;51.256;8.176;2022-07-26T00:16:36;19.60;60.60
14727;DHT22;7454;51.256;8.176;2022-07-26T00:19:04;19.60;60.70
14727;DHT22;7454;51.256;8.176;2022-07-26T00:21:29;19.60;60.60
14727;DHT22;7454;51.256;8.176;2022-07-26T00:23:56;19.60;60.70
14727;DHT22;7454;51.256;8.176;2022-07-26T00:26:25;19.60;60.80
14727;DHT22;7454;51.256;8.176;2022-07-26T00:28:51;19.70;60.80
14727;DHT22;7454;51.256;8.176;2022-07-26T00:31:17;19.70;60.70
14727;DHT22;7454;51.256;8.176;2022-07-26T00:33:43;19.60;60.70
14727;DHT22;7454;51.256;8.176;2022-07-26T00:36:08;19.70;60.80
14727;DHT22;7454;51.256;8.176;2022-07-26T00:38:34;19.60;60.90
14727;DHT22;7454;51.256;8.176;2022-07-26T00:41:00;19.60;60.90
14727;DHT22;7454;51.256;8.176;2022-07-26T00:43:27;19.60;60.90
14727;DHT22;7454;51.256;8.176;2022-07-26T00:45:53;19.50;60.90
14727;DHT22;7454;51.256;8.176;2022-07-26T00:48:19;19.50;60.90
14727;DHT22;7454;51.256;8.176;2022-07-26T00:50:45;19.40;60.90
14727;DHT22;7454;51.256;8.176;2022-07-26T00:53:11;19.40;61.00
14727;DHT22;7454;51.256;8.176;2022-07-26T00:55:37;19.40;61.00
14727;DHT22;7454;51.256;8.176;2022-07-26T00:58:02;19.40;61.00
14727;DHT22;7454;51.256;8.176;2022-07-26T01:00:28;19.20;61.00
14727;DHT22;7454;51.256;8.176;2022-07-26T01:02:55;19.20;61.00
14727;DHT22;7454;51.256;8.176;2022-07-26T01:05:23;19.20;61.00
14727;DHT22;7454;51.256;8.176;2022-07-26T01:07:50;19.20;61.00
14727;DHT22;7454;51.256;8.176;2022-07-26T01:10:17;19.20;61.10
14727;DHT22;7454;51.256;8.176;2022-07-26T01:12:44;19.10;61.20
14727;DHT22;7454;51.256;8.176;2022-07-26T01:15:12;19.10;61.10
14727;DHT22;7454;51.256;8.176;2022-07-26T01:17:39;19.10;61.10
14727;DHT22;7454;51.256;8.176;2022-07-26T01:20:08;19.10;61.20
14727;DHT22;7454;51.256;8.176;2022-07-26T01:22:35;19.10;61.20
14727;DHT22;7454;51.256;8.176;2022-07-26T01:25:02;19.00;61.20
14727;DHT22;7454;51.256;8.176;2022-07-26T01:27:28;19.10;61.20
14727;DHT22;7454;51.256;8.176;2022-07-26T01:29:54;19.10;61.20
14727;DHT22;7454;51.256;8.176;2022-07-26T01:32:20;19.00;61.20
14727;DHT22;7454;51.256;8.176;2022-07-26T01:34:45;19.00;61.20
14727;DHT22;7454;51.256;8.176;2022-07-26T01:37:11;19.10;61.30
14727;DHT22;7454;51.256;8.176;2022-07-26T01:39:37;19.00;61.30
14727;DHT22;7454;51.256;8.176;2022-07-26T01:42:04;19.00;61.30
14727;DHT22;7454;51.256;8.176;2022-07-26T01:44:29;19.00;61.30
14727;DHT22;7454;51.256;8.176;2022-07-26T01:46:55;19.00;61.30
14727;DHT22;7454;51.256;8.176;2022-07-26T01:49:21;19.00;61.30
14727;DHT22;7454;51.256;8.176;2022-07-26T01:51:47;18.90;61.30
14727;DHT22;7454;51.256;8.176;2022-07-26T01:54:13;19.00;61.30
14727;DHT22;7454;51.256;8.176;2022-07-26T01:56:38;18.90;61.40
14727;DHT22;7454;51.256;8.176;2022-07-26T01:59:04;18.90;61.40
14727;DHT22;7454;51.256;8.176;2022-07-26T02:01:30;18.90;61.40
14727;DHT22;7454;51.256;8.176;2022-07-26T02:03:56;18.80;61.40
14727;DHT22;7454;51.256;8.176;2022-07-26T02:06:21;18.80;61.40
14727;DHT22;7454;51.256;8.176;2022-07-26T02:08:47;18.80;61.50
14727;DHT22;7454;51.256;8.176;2022-07-26T02:11:13;18.80;61.50
14727;DHT22;7454;51.256;8.176;2022-07-26T02:13:40;18.80;61.50
14727;DHT22;7454;51.256;8.176;2022-07-26T02:16:12;18.80;61.50
14727;DHT22;7454;51.256;8.176;2022-07-26T02:18:39;18.80;61.50
14727;DHT22;7454;51.256;8.176;2022-07-26T02:21:07;18.80;61.50
14727;DHT22;7454;51.256;8.176;2022-07-26T02:23:34;18.70;61.50
14727;DHT22;7454;51.256;8.176;2022-07-26T02:26:00;18.60;61.60
14727;DHT22;7454;51.256;8.176;2022-07-26T02:28:26;18.60;61.60
14727;DHT22;7454;51.256;8.176;2022-07-26T02:30:52;18.50;61.70
14727;DHT22;7454;51.256;8.176;2022-07-26T02:33:19;18.40;61.70
14727;DHT22;7454;51.256;8.176;2022-07-26T02:35:45;18.40;61.70
14727;DHT22;7454;51.256;8.176;2022-07-26T02:38:13;18.30;61.80
14727;DHT22;7454;51.256;8.176;2022-07-26T02:40:41;18.20;61.80
14727;DHT22;7454;51.256;8.176;2022-07-26T02:43:08;18.20;61.80
14727;DHT22;7454;51.256;8.176;2022-07-26T02:45:35;18.10;61.90
14727;DHT22;7454;51.256;8.176;2022-07-26T02:48:01;18.10;61.90
14727;DHT22;7454;51.256;8.176;2022-07-26T02:50:28;18.10;61.90
14727;DHT22;7454;51.256;8.176;2022-07-26T02:52:54;18.00;61.90
14727;DHT22;7454;51.256;8.176;2022-07-26T02:55:22;18.10;61.90
14727;DHT22;7454;51.256;8.176;2022-07-26T02:57:49;18.10;62.00
14727;DHT22;7454;51.256;8.176;2022-07-26T03:00:18;18.10;62.10
14727;DHT22;7454;51.256;8.176;2022-07-26T03:02:46;17.90;62.00
14727;DHT22;7454;51.256;8.176;2022-07-26T03:05:13;18.00;62.10
14727;DHT22;7454;51.256;8.176;2022-07-26T03:07:39;18.00;62.10
14727;DHT22;7454;51.256;8.176;2022-07-26T03:10:06;17.90;62.10
14727;DHT22;7454;51.256;8.176;2022-07-26T03:12:32;17.90;62.10
14727;DHT22;7454;51.256;8.176;2022-07-26T03:14:58;17.90;62.30
14727;DHT22;7454;51.256;8.176;2022-07-26T03:17:24;17.90;62.20
14727;DHT22;7454;51.256;8.176;2022-07-26T03:19:50;17.90;62.30
14727;DHT22;7454;51.256;8.176;2022-07-26T03:22:16;17.90;62.20
14727;DHT22;7454;51.256;8.176;2022-07-26T03:24:42;17.90;62.20
14727;DHT22;7454;51.256;8.176;2022-07-26T03:27:07;17.90;62.30
14727;DHT22;7454;51.256;8.176;2022-07-26T03:29:33;17.80;62.30
14727;DHT22;7454;51.256;8.176;2022-07-26T03:31:59;17.80;62.30
14727;DHT22;7454;51.256;8.176;2022-07-26T03:34:25;17.80;62.30
14727;DHT22;7454;51.256;8.176;2022-07-26T03:36:51;17.70;62.30
14727;DHT22;7454;51.256;8.176;2022-07-26T03:39:17;17.70;62.30
14727;DHT22;7454;51.256;8.176;2022-07-26T03:41:43;17.70;62.30
14727;DHT22;7454;51.256;8.176;2022-07-26T03:44:08;17.70;62.30
14727;DHT22;7454;51.256;8.176;2022-07-26T03:46:34;17.70;62.30
14727;DHT22;7454;51.256;8.176;2022-07-26T03:49:00;17.70;62.30
14727;DHT22;7454;51.256;8.176;2022-07-26T03:51:26;17.60;62.40
14727;DHT22;7454;51.256;8.176;2022-07-26T03:53:51;17.60;62.40
14727;DHT22;7454;51.256;8.176;2022-07-26T03:56:17;17.60;62.40
14727;DHT22;7454;51.256;8.176;2022-07-26T03:59:01;17.60;62.40
14727;DHT22;7454;51.256;8.176;2022-07-26T04:01:29;17.60;62.50
14727;DHT22;7454;51.256;8.176;2022-07-26T04:03:54;17.60;62.40
14727;DHT22;7454;51.256;8.176;2022-07-26T04:06:21;17.60;62.50
14727;DHT22;7454;51.256;8.176;2022-07-26T04:08:48;17.60;62.50
14727;DHT22;7454;51.256;8.176;2022-07-26T04:11:14;17.70;62.50
14727;DHT22;7454;51.256;8.176;2022-07-26T04:13:39;17.60;62.50
14727;DHT22;7454;51.256;8.176;2022-07-26T04:16:05;17.60;62.60
14727;DHT22;7454;51.256;8.176;2022-07-26T04:18:31;17.60;62.60
14727;DHT22;7454;51.256;8.176;2022-07-26T04:20:57;17.60;62.50
14727;DHT22;7454;51.256;8.176;2022-07-26T04:23:23;17.60;62.60
14727;DHT22;7454;51.256;8.176;2022-07-26T04:25:49;17.60;62.60
14727;DHT22;7454;51.256;8.176;2022-07-26T04:28:15;17.70;62.70
14727;DHT22;7454;51.256;8.176;2022-07-26T04:30:42;17.70;62.70
14727;DHT22;7454;51.256;8.176;2022-07-26T04:33:08;17.70;62.60
14727;DHT22;7454;51.256;8.176;2022-07-26T04:35:34;17.70;62.60
14727;DHT22;7454;51.256;8.176;2022-07-26T04:38:00;17.80;62.60
14727;DHT22;7454;51.256;8.176;2022-07-26T04:40:29;17.70;62.60
14727;DHT22;7454;51.256;8.176;2022-07-26T04:42:59;17.70;62.60
14727;DHT22;7454;51.256;8.176;2022-07-26T04:45:26;17.70;62.70
14727;DHT22;7454;51.256;8.176;2022-07-26T04:47:51;17.80;62.70
14727;DHT22;7454;51.256;8.176;2022-07-26T04:50:18;17.80;62.70
14727;DHT22;7454;51.256;8.176;2022-07-26T04:52:49;17.80;62.70
14727;DHT22;7454;51.256;8.176;2022-07-26T04:55:16;17.80;62.70
14727;DHT22;7454;51.256;8.176;2022-07-26T04:57:43;17.80;62.70
14727;DHT22;7454;51.256;8.176;2022-07-26T05:00:12;17.80;62.70
14727;DHT22;7454;51.256;8.176;2022-07-26T05:02:38;17.90;62.90
14727;DHT22;7454;51.256;8.176;2022-07-26T05:05:05;17.90;62.80
14727;DHT22;7454;51.256;8.176;2022-07-26T05:07:42;18.00;63.00
14727;DHT22;7454;51.256;8.176;2022-07-26T05:10:09;18.00;62.80
14727;DHT22;7454;51.256;8.176;2022-07-26T05:12:35;18.00;62.90
14727;DHT22;7454;51.256;8.176;2022-07-26T05:15:01;18.00;62.80
14727;DHT22;7454;51.256;8.176;2022-07-26T05:17:27;18.00;62.80
14727;DHT22;7454;51.256;8.176;2022-07-26T05:19:53;18.00;62.80
14727;DHT22;7454;51.256;8.176;2022-07-26T05:22:19;17.90;62.80
14727;DHT22;7454;51.256;8.176;2022-07-26T05:24:44;17.90;62.80
14727;DHT22;7454;51.256;8.176;2022-07-26T05:27:10;17.90;62.90
14727;DHT22;7454;51.256;8.176;2022-07-26T05:29:36;17.90;63.00
14727;DHT22;7454;51.256;8.176;2022-07-26T05:32:02;17.90;63.30
14727;DHT22;7454;51.256;8.176;2022-07-26T05:34:28;17.90;63.50
14727;DHT22;7454;51.256;8.176;2022-07-26T05:36:54;17.80;63.60
14727;DHT22;7454;51.256;8.176;2022-07-26T05:39:20;17.80;63.70
14727;DHT22;7454;51.256;8.176;2022-07-26T05:41:45;17.70;63.80
14727;DHT22;7454;51.256;8.176;2022-07-26T05:44:11;17.70;63.80
14727;DHT22;7454;51.256;8.176;2022-07-26T05:46:37;17.70;63.90
14727;DHT22;7454;51.256;8.176;2022-07-26T05:49:04;17.60;64.00
14727;DHT22;7454;51.256;8.176;2022-07-26T05:51:31;17.70;64.00
14727;DHT22;7454;51.256;8.176;2022-07-26T05:53:58;17.70;64.10
14727;DHT22;7454;51.256;8.176;2022-07-26T05:56:24;17.60;64.00
14727;DHT22;7454;51.256;8.176;2022-07-26T05:58:50;17.70;64.10
14727;DHT22;7454;51.256;8.176;2022-07-26T06:01:15;17.60;64.30
14727;DHT22;7454;51.256;8.176;2022-07-26T06:03:41;17.50;64.50
14727;DHT22;7454;51.256;8.176;2022-07-26T06:06:08;17.50;64.60
14727;DHT22;7454;51.256;8.176;2022-07-26T06:08:35;17.50;64.80
14727;DHT22;7454;51.256;8.176;2022-07-26T06:11:01;17.50;64.90
14727;DHT22;7454;51.256;8.176;2022-07-26T06:13:27;17.50;65.00
14727;DHT22;7454;51.256;8.176;2022-07-26T06:15:53;17.50;64.90
14727;DHT22;7454;51.256;8.176;2022-07-26T06:18:18;17.40;65.10
14727;DHT22;7454;51.256;8.176;2022-07-26T06:20:45;17.40;65.20
14727;DHT22;7454;51.256;8.176;2022-07-26T06:23:12;17.40;65.20
14727;DHT22;7454;51.256;8.176;2022-07-26T06:25:38;17.40;65.30
14727;DHT22;7454;51.256;8.176;2022-07-26T06:28:06;17.40;65.30
14727;DHT22;7454;51.256;8.176;2022-07-26T06:30:34;17.40;65.10
14727;DHT22;7454;51.256;8.176;2022-07-26T06:33:00;17.40;65.20
14727;DHT22;7454;51.256;8.176;2022-07-26T06:35:26;17.50;65.20
14727;DHT22;7454;51.256;8.176;2022-07-26T06:38:01;17.50;65.30
14727;DHT22;7454;51.256;8.176;2022-07-26T06:40:27;17.50;65.30
14727;DHT22;7454;51.256;8.176;2022-07-26T06:42:52;17.60;65.20
14727;DHT22;7454;51.256;8.176;2022-07-26T06:45:18;17.60;65.10
14727;DHT22;7454;51.256;8.176;2022-07-26T06:47:44;17.60;65.20
14727;DHT22;7454;51.256;8.176;2022-07-26T06:50:11;17.70;65.20
14727;DHT22;7454;51.256;8.176;2022-07-26T06:52:37;17.70;65.30
14727;DHT22;7454;51.256;8.176;2022-07-26T06:55:03;17.70;65.50
14727;DHT22;7454;51.256;8.176;2022-07-26T06:57:30;17.80;65.30
14727;DHT22;7454;51.256;8.176;2022-07-26T06:59:56;17.80;65.20
14727;DHT22;7454;51.256;8.176;2022-07-26T07:02:21;17.90;65.40
14727;DHT22;7454;51.256;8.176;2022-07-26T07:04:47;17.90;65.40
14727;DHT22;7454;51.256;8.176;2022-07-26T07:07:13;18.00;65.30
14727;DHT22;7454;51.256;8.176;2022-07-26T07:09:39;18.00;65.20
14727;DHT22;7454;51.256;8.176;2022-07-26T07:12:05;18.00;65.30
14727;DHT22;7454;51.256;8.176;2022-07-26T07:14:31;18.00;65.30
14727;DHT22;7454;51.256;8.176;2022-07-26T07:16:58;18.10;65.40
14727;DHT22;7454;51.256;8.176;2022-07-26T07:19:24;18.10;65.40
14727;DHT22;7454;51.256;8.176;2022-07-26T07:21:50;18.10;65.30
14727;DHT22;7454;51.256;8.176;2022-07-26T07:24:17;18.10;65.30
14727;DHT22;7454;51.256;8.176;2022-07-26T07:26:43;18.20;65.20
14727;DHT22;7454;51.256;8.176;2022-07-26T07:29:09;18.20;65.30
14727;DHT22;7454;51.256;8.176;2022-07-26T07:31:39;18.20;65.10
14727;DHT22;7454;51.256;8.176;2022-07-26T07:34:06;18.20;65.40
14727;DHT22;7454;51.256;8.176;2022-07-26T07:36:32;18.20;65.30
14727;DHT22;7454;51.256;8.176;2022-07-26T07:38:58;18.20;65.20
14727;DHT22;7454;51.256;8.176;2022-07-26T07:41:24;18.20;65.20
14727;DHT22;7454;51.256;8.176;2022-07-26T07:43:49;18.20;65.20
14727;DHT22;7454;51.256;8.176;2022-07-26T07:46:15;18.20;65.20
14727;DHT22;7454;51.256;8.176;2022-07-26T07:48:41;18.40;65.50
14727;DHT22;7454;51.256;8.176;2022-07-26T07:51:07;18.20;65.20
14727;DHT22;7454;51.256;8.176;2022-07-26T07:53:33;18.20;65.40
14727;DHT22;7454;51.256;8.176;2022-07-26T07:55:59;18.10;65.30
14727;DHT22;7454;51.256;8.176;2022-07-26T07:58:25;18.10;65.20
14727;DHT22;7454;51.256;8.176;2022-07-26T08:00:51;18.10;65.20
14727;DHT22;7454;51.256;8.176;2022-07-26T08:03:18;18.10;65.30
14727;DHT22;7454;51.256;8.176;2022-07-26T08:05:44;18.20;65.40
14727;DHT22;7454;51.256;8.176;2022-07-26T08:08:11;18.30;65.30
14727;DHT22;7454;51.256;8.176;2022-07-26T08:10:36;18.30;65.50
14727;DHT22;7454;51.256;8.176;2022-07-26T08:13:02;18.40;65.30
14727;DHT22;7454;51.256;8.176;2022-07-26T08:15:28;18.60;65.60
14727;DHT22;7454;51.256;8.176;2022-07-26T08:17:54;18.70;65.40
14727;DHT22;7454;51.256;8.176;2022-07-26T08:20:20;18.80;65.10
14727;DHT22;7454;51.256;8.176;2022-07-26T08:22:46;19.00;65.40
14727;DHT22;7454;51.256;8.176;2022-07-26T08:25:12;19.10;65.00
14727;DHT22;7454;51.256;8.176;2022-07-26T08:27:38;19.20;65.10
14727;DHT22;7454;51.256;8.176;2022-07-26T08:30:04;19.20;64.90
14727;DHT22;7454;51.256;8.176;2022-07-26T08:32:30;19.20;64.90
14727;DHT22;7454;51.256;8.176;2022-07-26T08:34:56;19.20;65.00
14727;DHT22;7454;51.256;8.176;2022-07-26T08:37:22;19.20;64.70
14727;DHT22;7454;51.256;8.176;2022-07-26T08:39:48;19.30;64.80
14727;DHT22;7454;51.256;8.176;2022-07-26T08:42:18;19.20;64.80
14727;DHT22;7454;51.256;8.176;2022-07-26T08:44:47;19.30;64.60
14727;DHT22;7454;51.256;8.176;2022-07-26T08:47:14;19.40;64.70
14727;DHT22;7454;51.256;8.176;2022-07-26T08:49:42;19.40;64.60
14727;DHT22;7454;51.256;8.176;2022-07-26T08:52:09;19.50;64.60
14727;DHT22;7454;51.256;8.176;2022-07-26T08:54:42;19.60;64.70
14727;DHT22;7454;51.256;8.176;2022-07-26T08:57:12;19.70;64.60
14727;DHT22;7454;51.256;8.176;2022-07-26T08:59:38;19.80;64.70
14727;DHT22;7454;51.256;8.176;2022-07-26T09:02:07;19.90;64.30
14727;DHT22;7454;51.256;8.176;2022-07-26T09:04:39;19.90;64.30
14727;DHT22;7454;51.256;8.176;2022-07-26T09:07:15;19.80;64.10
14727;DHT22;7454;51.256;8.176;2022-07-26T09:12:20;19.70;64.20
14727;DHT22;7454;51.256;8.176;2022-07-26T09:14:47;19.60;64.20
14727;DHT22;7454;51.256;8.176;2022-07-26T09:17:16;19.60;64.50
14727;DHT22;7454;51.256;8.176;2022-07-26T09:19:44;19.50;64.30
14727;DHT22;7454;51.256;8.176;2022-07-26T09:22:13;19.60;64.40
14727;DHT22;7454;51.256;8.176;2022-07-26T09:24:43;19.60;64.40
14727;DHT22;7454;51.256;8.176;2022-07-26T09:27:16;19.80;64.50
14727;DHT22;7454;51.256;8.176;2022-07-26T09:29:46;20.00;64.50
14727;DHT22;7454;51.256;8.176;2022-07-26T09:32:22;20.00;64.30
14727;DHT22;7454;51.256;8.176;2022-07-26T09:34:51;20.10;64.20
14727;DHT22;7454;51.256;8.176;2022-07-26T09:37:35;20.20;63.70
14727;DHT22;7454;51.256;8.176;2022-07-26T09:40:05;20.30;64.00
14727;DHT22;7454;51.256;8.176;2022-07-26T09:42:32;20.30;63.80
14727;DHT22;7454;51.256;8.176;2022-07-26T09:44:59;20.40;63.90
14727;DHT22;7454;51.256;8.176;2022-07-26T09:47:38;20.50;63.60
14727;DHT22;7454;51.256;8.176;2022-07-26T09:50:18;20.50;63.70
14727;DHT22;7454;51.256;8.176;2022-07-26T09:53:10;20.60;63.40
14727;DHT22;7454;51.256;8.176;2022-07-26T09:58:13;20.90;63.10
14727;DHT22;7454;51.256;8.176;2022-07-26T10:00:41;21.00;62.80
14727;DHT22;7454;51.256;8.176;2022-07-26T10:03:07;21.00;63.00
14727;DHT22;7454;51.256;8.176;2022-07-26T10:05:34;21.00;63.00
14727;DHT22;7454;51.256;8.176;2022-07-26T10:08:01;21.00;62.70
14727;DHT22;7454;51.256;8.176;2022-07-26T10:10:35;21.00;62.90
14727;DHT22;7454;51.256;8.176;2022-07-26T10:13:14;21.10;62.80
14727;DHT22;7454;51.256;8.176;2022-07-26T10:15:50;21.10;62.60
14727;DHT22;7454;51.256;8.176;2022-07-26T10:23:56;21.40;62.80
14727;DHT22;7454;51.256;8.176;2022-07-26T10:26:36;21.40;62.80
14727;DHT22;7454;51.256;8.176;2022-07-26T10:34:34;21.90;62.20
14727;DHT22;7454;51.256;8.176;2022-07-26T10:37:08;22.00;62.20
14727;DHT22;7454;51.256;8.176;2022-07-26T10:39:36;22.10;62.10
14727;DHT22;7454;51.256;8.176;2022-07-26T10:42:09;22.20;62.10
14727;DHT22;7454;51.256;8.176;2022-07-26T10:44:40;22.30;62.10
14727;DHT22;7454;51.256;8.176;2022-07-26T10:47:14;22.40;62.00
14727;DHT22;7454;51.256;8.176;2022-07-26T10:52:29;22.50;61.70
14727;DHT22;7454;51.256;8.176;2022-07-26T10:57:42;22.40;61.70
14727;DHT22;7454;51.256;8.176;2022-07-26T11:00:23;22.30;61.30
14727;DHT22;7454;51.256;8.176;2022-07-26T11:02:57;22.10;61.00
14727;DHT22;7454;51.256;8.176;2022-07-26T11:05:28;22.10;60.90
14727;DHT22;7454;51.256;8.176;2022-07-26T11:07:59;22.00;61.00
14727;DHT22;7454;51.256;8.176;2022-07-26T11:10:41;21.90;60.90
14727;DHT22;7454;51.256;8.176;2022-07-26T11:13:18;21.80;61.00
14727;DHT22;7454;51.256;8.176;2022-07-26T11:15:58;21.70;60.90
14727;DHT22;7454;51.256;8.176;2022-07-26T11:18:27;21.60;61.00
14727;DHT22;7454;51.256;8.176;2022-07-26T11:21:06;21.60;61.10
14727;DHT22;7454;51.256;8.176;2022-07-26T11:23:36;21.60;61.40
14727;DHT22;7454;51.256;8.176;2022-07-26T11:28:55;21.40;61.50
14727;DHT22;7454;51.256;8.176;2022-07-26T11:31:40;21.30;61.80
14727;DHT22;7454;51.256;8.176;2022-07-26T11:34:24;21.20;61.80
14727;DHT22;7454;51.256;8.176;2022-07-26T11:36:54;21.20;62.00
14727;DHT22;7454;51.256;8.176;2022-07-26T11:39:23;21.10;62.10
14727;DHT22;7454;51.256;8.176;2022-07-26T11:41:55;21.00;62.10
14727;DHT22;7454;51.256;8.176;2022-07-26T11:44:22;21.00;62.30
14727;DHT22;7454;51.256;8.176;2022-07-26T11:46:49;21.00;62.20
14727;DHT22;7454;51.256;8.176;2022-07-26T11:49:18;21.00;62.10
14727;DHT22;7454;51.256;8.176;2022-07-26T11:51:56;21.10;62.20
14727;DHT22;7454;51.256;8.176;2022-07-26T11:54:32;21.20;62.00
14727;DHT22;7454;51.256;8.176;2022-07-26T11:57:07;21.30;61.70
14727;DHT22;7454;51.256;8.176;2022-07-26T11:59:36;21.40;61.70
14727;DHT22;7454;51.256;8.176;2022-07-26T12:02:06;21.40;61.60
14727;DHT22;7454;51.256;8.176;2022-07-26T12:04:42;21.60;61.90
14727;DHT22;7454;51.256;8.176;2022-07-26T12:09:48;21.80;61.10
14727;DHT22;7454;51.256;8.176;2022-07-26T12:15:05;22.10;61.00
14727;DHT22;7454;51.256;8.176;2022-07-26T12:17:32;22.30;61.20
14727;DHT22;7454;51.256;8.176;2022-07-26T12:20:16;22.40;61.30
14727;DHT22;7454;51.256;8.176;2022-07-26T12:22:56;22.60;61.00
14727;DHT22;7454;51.256;8.176;2022-07-26T12:25:28;22.60;60.60
14727;DHT22;7454;51.256;8.176;2022-07-26T12:27:54;22.60;60.60
14727;DHT22;7454;51.256;8.176;2022-07-26T12:30:20;22.70;60.60
14727;DHT22;7454;51.256;8.176;2022-07-26T12:32:47;22.70;60.60
14727;DHT22;7454;51.256;8.176;2022-07-26T12:35:17;22.70;60.50
14727;DHT22;7454;51.256;8.176;2022-07-26T12:37:53;22.70;60.40
14727;DHT22;7454;51.256;8.176;2022-07-26T12:42:58;22.70;60.80
14727;DHT22;7454;51.256;8.176;2022-07-26T12:45:31;22.70;61.10
14727;DHT22;7454;51.256;8.176;2022-07-26T12:48:00;22.50;61.70
14727;DHT22;7454;51.256;8.176;2022-07-26T12:50:30;22.10;61.70
14727;DHT22;7454;51.256;8.176;2022-07-26T12:53:00;21.90;61.80
14727;DHT22;7454;51.256;8.176;2022-07-26T12:55:29;21.70;62.00
14727;DHT22;7454;51.256;8.176;2022-07-26T12:57:55;21.50;62.10
14727;DHT22;7454;51.256;8.176;2022-07-26T13:00:21;21.40;62.20
14727;DHT22;7454;51.256;8.176;2022-07-26T13:02:47;21.50;62.40
14727;DHT22;7454;51.256;8.176;2022-07-26T13:05:13;21.40;62.20
14727;DHT22;7454;51.256;8.176;2022-07-26T13:07:40;21.20;62.10
14727;DHT22;7454;51.256;8.176;2022-07-26T13:10:07;21.10;62.30
14727;DHT22;7454;51.256;8.176;2022-07-26T13:12:35;21.10;62.30
14727;DHT22;7454;51.256;8.176;2022-07-26T13:15:01;21.00;62.20
14727;DHT22;7454;51.256;8.176;2022-07-26T13:17:27;21.00;62.20
14727;DHT22;7454;51.256;8.176;2022-07-26T13:19:53;20.80;62.10
14727;DHT22;7454;51.256;8.176;2022-07-26T13:22:19;20.70;62.10
14727;DHT22;7454;51.256;8.176;2022-07-26T13:24:45;20.70;62.20
14727;DHT22;7454;51.256;8.176;2022-07-26T13:27:10;20.70;62.20
14727;DHT22;7454;51.256;8.176;2022-07-26T13:29:38;20.80;62.30
14727;DHT22;7454;51.256;8.176;2022-07-26T13:32:04;20.70;62.30
14727;DHT22;7454;51.256;8.176;2022-07-26T13:34:30;20.80;62.30
14727;DHT22;7454;51.256;8.176;2022-07-26T13:36:57;20.80;62.40
14727;DHT22;7454;51.256;8.176;2022-07-26T13:39:23;20.80;62.40
14727;DHT22;7454;51.256;8.176;2022-07-26T13:41:50;20.80;62.40
14727;DHT22;7454;51.256;8.176;2022-07-26T13:44:16;20.80;62.50
14727;DHT22;7454;51.256;8.176;2022-07-26T13:46:42;20.80;62.60
14727;DHT22;7454;51.256;8.176;2022-07-26T13:49:08;20.90;62.80
14727;DHT22;7454;51.256;8.176;2022-07-26T13:51:35;20.90;62.60
14727;DHT22;7454;51.256;8.176;2022-07-26T13:54:23;21.00;62.50
14727;DHT22;7454;51.256;8.176;2022-07-26T13:56:51;21.00;62.40
14727;DHT22;7454;51.256;8.176;2022-07-26T13:59:17;21.00;62.50
14727;DHT22;7454;51.256;8.176;2022-07-26T14:01:45;21.10;62.60
14727;DHT22;7454;51.256;8.176;2022-07-26T14:04:11;21.20;62.50
14727;DHT22;7454;51.256;8.176;2022-07-26T14:06:37;21.20;62.50
14727;DHT22;7454;51.256;8.176;2022-07-26T14:09:06;21.20;62.60
14727;DHT22;7454;51.256;8.176;2022-07-26T14:11:32;21.30;62.70
14727;DHT22;7454;51.256;8.176;2022-07-26T14:13:58;21.40;62.30
14727;DHT22;7454;51.256;8.176;2022-07-26T14:16:24;21.50;62.20
14727;DHT22;7454;51.256;8.176;2022-07-26T14:18:57;21.60;62.20
14727;DHT22;7454;51.256;8.176;2022-07-26T14:21:28;21.50;62.10
14727;DHT22;7454;51.256;8.176;2022-07-26T14:23:55;21.50;62.10
14727;DHT22;7454;51.256;8.176;2022-07-26T14:26:22;21.40;62.10
14727;DHT22;7454;51.256;8.176;2022-07-26T14:28:48;21.40;62.10
14727;DHT22;7454;51.256;8.176;2022-07-26T14:31:14;21.30;62.20
14727;DHT22;7454;51.256;8.176;2022-07-26T14:33:40;21.30;62.10
14727;DHT22;7454;51.256;8.176;2022-07-26T14:36:06;21.20;62.20
14727;DHT22;7454;51.256;8.176;2022-07-26T14:38:32;21.20;62.20
14727;DHT22;7454;51.256;8.176;2022-07-26T14:40:59;21.10;62.20
14727;DHT22;7454;51.256;8.176;2022-07-26T14:43:25;21.20;62.40
14727;DHT22;7454;51.256;8.176;2022-07-26T14:45:51;21.30;62.30
14727;DHT22;7454;51.256;8.176;2022-07-26T14:48:17;21.30;62.50
14727;DHT22;7454;51.256;8.176;2022-07-26T14:50:44;21.40;62.40
14727;DHT22;7454;51.256;8.176;2022-07-26T14:53:15;21.50;62.20
14727;DHT22;7454;51.256;8.176;2022-07-26T14:55:41;21.50;62.10
14727;DHT22;7454;51.256;8.176;2022-07-26T14:58:09;21.50;62.00
14727;DHT22;7454;51.256;8.176;2022-07-26T15:00:35;21.40;62.00
14727;DHT22;7454;51.256;8.176;2022-07-26T15:03:01;21.50;61.80
14727;DHT22;7454;51.256;8.176;2022-07-26T15:05:27;21.40;61.90
14727;DHT22;7454;51.256;8.176;2022-07-26T15:07:53;21.30;61.50
14727;DHT22;7454;51.256;8.176;2022-07-26T15:10:20;21.20;61.50
14727;DHT22;7454;51.256;8.176;2022-07-26T15:12:58;21.10;61.70
14727;DHT22;7454;51.256;8.176;2022-07-26T15:15:25;21.20;61.70
14727;DHT22;7454;51.256;8.176;2022-07-26T15:17:51;21.20;61.70
14727;DHT22;7454;51.256;8.176;2022-07-26T15:20:18;21.20;61.70
14727;DHT22;7454;51.256;8.176;2022-07-26T15:22:44;21.30;61.80
14727;DHT22;7454;51.256;8.176;2022-07-26T15:25:11;21.20;61.80
14727;DHT22;7454;51.256;8.176;2022-07-26T15:27:37;21.20;61.90
14727;DHT22;7454;51.256;8.176;2022-07-26T15:30:04;21.20;61.90
14727;DHT22;7454;51.256;8.176;2022-07-26T15:32:31;21.20;61.90
14727;DHT22;7454;51.256;8.176;2022-07-26T15:34:58;21.10;61.70
14727;DHT22;7454;51.256;8.176;2022-07-26T15:37:24;21.10;61.80
14727;DHT22;7454;51.256;8.176;2022-07-26T15:39:49;21.00;61.60
14727;DHT22;7454;51.256;8.176;2022-07-26T15:42:15;21.10;61.70
14727;DHT22;7454;51.256;8.176;2022-07-26T15:44:41;20.90;61.60
14727;DHT22;7454;51.256;8.176;2022-07-26T15:47:07;20.90;61.60
14727;DHT22;7454;51.256;8.176;2022-07-26T15:49:33;20.90;61.70
14727;DHT22;7454;51.256;8.176;2022-07-26T15:51:58;20.90;61.60
14727;DHT22;7454;51.256;8.176;2022-07-26T15:54:24;20.90;61.80
14727;DHT22;7454;51.256;8.176;2022-07-26T15:56:50;21.00;61.80
14727;DHT22;7454;51.256;8.176;2022-07-26T15:59:16;20.90;61.70
14727;DHT22;7454;51.256;8.176;2022-07-26T16:01:42;20.90;61.70
14727;DHT22;7454;51.256;8.176;2022-07-26T16:04:07;20.90;61.70
14727;DHT22;7454;51.256;8.176;2022-07-26T16:06:34;20.80;61.70
14727;DHT22;7454;51.256;8.176;2022-07-26T16:09:00;20.90;61.80
14727;DHT22;7454;51.256;8.176;2022-07-26T16:11:28;20.90;61.80
14727;DHT22;7454;51.256;8.176;2022-07-26T16:13:54;21.00;61.90
14727;DHT22;7454;51.256;8.176;2022-07-26T16:16:23;21.00;61.70
14727;DHT22;7454;51.256;8.176;2022-07-26T16:18:49;20.90;61.70
14727;DHT22;7454;51.256;8.176;2022-07-26T16:21:16;20.90;61.70